createdAt,value
2023-05-10T00:01:22.896Z,18.67
2023-05-10T00:03:51.172Z,18.30
2023-05-10T00:06:19.496Z,20.03
2023-05-10T00:08:49.093Z,20.33
2023-05-10T00:11:17.281Z,19.63
2023-05-10T00:13:45.515Z,18.63
2023-05-10T00:16:14.157Z,18.33
2023-05-10T00:18:42.637Z,17.07
2023-05-10T00:21:10.856Z,17.23
2023-05-10T00:23:39.342Z,19.30
2023-05-10T00:26:08.913Z,17.60
2023-05-10T00:28:37.120Z,19.03
2023-05-10T00:31:05.520Z,18.30
2023-05-10T00:33:33.740Z,17.67
2023-05-10T00:36:01.920Z,17.13
2023-05-10T00:38:30.054Z,15.23
2023-05-10T00:40:58.260Z,15.80
2023-05-10T00:43:27.864Z,13.23
2023-05-10T00:45:56.227Z,12.90
2023-05-10T00:48:24.793Z,11.77
2023-05-10T00:50:53.058Z,11.57
2023-05-10T00:53:21.559Z,11.33
2023-05-10T00:55:49.795Z,10.37
2023-05-10T00:58:17.937Z,11.33
2023-05-10T01:00:48.399Z,11.37
2023-05-10T01:03:16.797Z,10.70
2023-05-10T01:05:45.045Z,10.73
2023-05-10T01:08:13.261Z,10.37
2023-05-10T01:10:41.517Z,9.77
2023-05-10T01:13:09.841Z,9.87
2023-05-10T01:15:38.414Z,9.37
2023-05-10T01:18:08.077Z,9.80
2023-05-10T01:20:43.044Z,9.53
2023-05-10T01:23:22.534Z,9.83
2023-05-10T01:26:17.948Z,9.77
2023-05-10T01:29:01.735Z,9.43
2023-05-10T01:31:33.953Z,9.80
2023-05-10T01:34:05.220Z,10.90
2023-05-10T01:36:33.790Z,11.00
2023-05-10T01:39:04.929Z,9.63
2023-05-10T01:41:37.726Z,9.77
2023-05-10T01:44:07.779Z,9.87
2023-05-10T01:46:38.258Z,9.90
2023-05-10T01:49:11.452Z,9.47
2023-05-10T01:51:42.307Z,9.13
2023-05-10T01:54:11.708Z,8.90
2023-05-10T01:56:40.568Z,8.70
2023-05-10T01:59:11.518Z,8.20
2023-05-10T02:01:40.176Z,8.70
2023-05-10T02:04:11.427Z,8.63
2023-05-10T02:06:40.907Z,8.40
2023-05-10T02:09:09.910Z,9.43
2023-05-10T02:11:40.466Z,9.70
2023-05-10T02:14:10.390Z,9.63
2023-05-10T02:16:38.864Z,9.57
2023-05-10T02:19:07.965Z,10.20
2023-05-10T02:21:38.249Z,10.10
2023-05-10T02:24:06.905Z,10.77
2023-05-10T02:26:36.152Z,11.30
2023-05-10T02:29:05.194Z,11.40
2023-05-10T02:31:34.717Z,13.83
2023-05-10T02:34:03.512Z,13.93
2023-05-10T02:36:33.015Z,15.17
2023-05-10T02:39:04.324Z,15.47
2023-05-10T02:41:33.725Z,15.93
2023-05-10T02:44:03.724Z,15.60
2023-05-10T02:46:32.301Z,16.10
2023-05-10T02:49:00.597Z,15.63
2023-05-10T02:51:32.510Z,16.07
2023-05-10T02:54:04.642Z,16.57
2023-05-10T02:56:36.004Z,16.70
2023-05-10T02:59:04.188Z,17.13
2023-05-10T03:01:32.413Z,16.40
2023-05-10T03:04:00.628Z,16.77
2023-05-10T03:06:29.603Z,15.53
2023-05-10T03:08:58.461Z,15.73
2023-05-10T03:11:31.465Z,15.40
2023-05-10T03:14:05.430Z,14.77
2023-05-10T03:16:38.543Z,13.57
2023-05-10T03:19:14.757Z,14.20
2023-05-10T03:21:44.411Z,13.30
2023-05-10T03:24:16.238Z,13.47
2023-05-10T03:26:46.611Z,13.37
2023-05-10T03:29:17.134Z,13.13
2023-05-10T03:31:45.572Z,13.77
2023-05-10T03:34:13.782Z,14.20
2023-05-10T03:36:41.958Z,13.83
2023-05-10T03:39:11.390Z,14.43
2023-05-10T03:41:39.553Z,14.57
2023-05-10T03:44:07.712Z,13.80
2023-05-10T03:46:37.273Z,14.53
2023-05-10T03:49:05.438Z,15.40
2023-05-10T03:51:33.713Z,14.70
2023-05-10T03:54:01.986Z,13.37
2023-05-10T03:56:30.158Z,13.77
2023-05-10T03:58:58.317Z,13.80
2023-05-10T04:01:26.529Z,14.00
2023-05-10T04:03:56.111Z,13.23
2023-05-10T04:06:24.375Z,13.30
2023-05-10T04:08:52.527Z,13.07
2023-05-10T04:11:22.829Z,12.57
2023-05-10T04:13:50.989Z,13.50
2023-05-10T04:16:19.204Z,14.73
2023-05-10T04:18:47.371Z,13.97
2023-05-10T04:21:17.039Z,12.37
2023-05-10T04:23:45.368Z,12.63
2023-05-10T04:26:13.555Z,12.30
2023-05-10T04:28:41.736Z,11.47
2023-05-10T04:31:10.446Z,11.37
2023-05-10T04:33:39.259Z,11.63
2023-05-10T04:36:07.960Z,12.07
2023-05-10T04:38:37.457Z,11.70
2023-05-10T04:41:09.786Z,11.97
2023-05-10T04:43:38.056Z,11.20
2023-05-10T04:46:06.549Z,12.00
2023-05-10T04:48:34.864Z,12.40
2023-05-10T04:51:04.740Z,12.53
2023-05-10T04:53:32.944Z,11.90
2023-05-10T04:56:02.455Z,12.33
2023-05-10T04:58:30.608Z,12.93
2023-05-10T05:00:58.779Z,11.50
2023-05-10T05:03:27.006Z,13.13
2023-05-10T05:05:55.282Z,12.23
2023-05-10T05:08:23.744Z,12.10
2023-05-10T05:10:52.103Z,12.73
2023-05-10T05:13:21.713Z,12.23
2023-05-10T05:15:49.926Z,11.93
2023-05-10T05:18:18.270Z,12.60
2023-05-10T05:20:46.481Z,12.10
2023-05-10T05:23:14.683Z,11.80
2023-05-10T05:25:42.959Z,11.20
2023-05-10T05:28:11.127Z,9.67
2023-05-10T05:30:40.645Z,9.80
2023-05-10T05:33:08.909Z,9.87
2023-05-10T05:35:37.113Z,8.43
2023-05-10T05:38:05.267Z,8.73
2023-05-10T05:40:33.470Z,7.93
2023-05-10T05:43:01.626Z,7.27
2023-05-10T05:45:29.813Z,7.80
2023-05-10T05:47:59.614Z,6.83
2023-05-10T05:50:27.939Z,7.10
2023-05-10T05:52:56.244Z,6.47
2023-05-10T05:55:25.013Z,6.20
2023-05-10T05:57:53.181Z,5.97
2023-05-10T06:00:22.196Z,5.83
2023-05-10T06:02:50.454Z,6.20
2023-05-10T06:05:21.148Z,5.63
2023-05-10T06:07:49.322Z,5.80
2023-05-10T06:10:17.545Z,5.67
2023-05-10T06:12:46.079Z,5.80
2023-05-10T06:15:14.573Z,5.00
2023-05-10T06:17:44.307Z,5.40
2023-05-10T06:20:13.130Z,5.03
2023-05-10T06:22:42.643Z,4.50
2023-05-10T06:25:12.284Z,4.40
2023-05-10T06:27:40.492Z,3.83
2023-05-10T06:30:13.440Z,3.10
2023-05-10T06:32:41.968Z,2.10
2023-05-10T06:35:10.699Z,1.87
2023-05-10T06:37:38.854Z,1.60
2023-05-10T06:40:10.270Z,1.00
2023-05-10T06:42:38.817Z,0.97
2023-05-10T06:45:07.441Z,1.17
2023-05-10T06:47:38.697Z,0.50
2023-05-10T06:50:07.773Z,1.00
2023-05-10T06:52:35.920Z,1.20
2023-05-10T06:55:04.466Z,1.00
2023-05-10T06:57:34.071Z,0.70
2023-05-10T07:00:02.300Z,1.00
2023-05-10T07:02:30.612Z,0.53
2023-05-10T07:05:01.634Z,0.73
2023-05-10T07:07:31.020Z,0.97
2023-05-10T07:09:59.450Z,0.90
2023-05-10T07:12:27.883Z,0.60
2023-05-10T07:14:57.414Z,0.90
2023-05-10T07:17:25.767Z,0.70
2023-05-10T07:19:54.253Z,0.87
2023-05-10T07:22:22.391Z,0.80
2023-05-10T07:24:50.574Z,0.80
2023-05-10T07:27:18.775Z,0.90
2023-05-10T07:29:47.012Z,0.97
2023-05-10T07:32:16.629Z,1.27
2023-05-10T07:34:44.878Z,1.57
2023-05-10T07:37:13.240Z,1.57
2023-05-10T07:39:41.633Z,1.97
2023-05-10T07:42:09.817Z,1.87
2023-05-10T07:44:37.985Z,3.30
2023-05-10T07:47:06.212Z,6.30
2023-05-10T07:49:36.570Z,4.70
2023-05-10T07:52:05.916Z,7.37
2023-05-10T07:54:34.688Z,18.47
2023-05-10T07:57:02.935Z,3.10
2023-05-10T07:59:31.149Z,3.50
2023-05-10T08:01:59.358Z,42.43
2023-05-10T08:04:27.585Z,22.83
2023-05-10T08:06:57.113Z,4.67
2023-05-10T08:09:25.466Z,5.37
2023-05-10T08:11:53.784Z,5.83
2023-05-10T08:14:22.058Z,3.67
2023-05-10T08:16:50.257Z,4.67
2023-05-10T08:19:20.429Z,2.00
2023-05-10T08:21:48.662Z,13.53
2023-05-10T08:24:18.279Z,2.33
2023-05-10T08:26:46.515Z,3.60
2023-05-10T08:29:14.683Z,4.07
2023-05-10T08:31:42.927Z,2.43
2023-05-10T08:34:11.173Z,5.10
2023-05-10T08:36:39.499Z,1.83
2023-05-10T08:39:16.181Z,3.33
2023-05-10T08:41:53.941Z,1.80
2023-05-10T08:44:22.570Z,1.70
2023-05-10T08:46:52.607Z,1.60
2023-05-10T08:49:22.645Z,4.17
2023-05-10T08:51:53.089Z,2.43
2023-05-10T08:54:21.362Z,1.67
2023-05-10T08:56:49.915Z,1.60
2023-05-10T08:59:19.818Z,3.47
2023-05-10T09:01:50.346Z,1.60
2023-05-10T09:04:18.723Z,2.07
2023-05-10T09:06:47.045Z,3.50
2023-05-10T09:09:15.849Z,2.30
2023-05-10T09:11:44.144Z,3.50
2023-05-10T09:14:13.366Z,3.87
2023-05-10T09:16:43.271Z,3.10
2023-05-10T09:19:11.643Z,3.93
2023-05-10T09:21:40.363Z,3.13
2023-05-10T09:24:09.092Z,3.80
2023-05-10T09:26:37.700Z,3.03
2023-05-10T09:29:07.379Z,13.70
2023-05-10T09:31:52.134Z,13.33
2023-05-10T09:34:22.505Z,5.83
2023-05-10T09:36:58.419Z,23.30
2023-05-10T09:39:36.192Z,2.80
2023-05-10T09:42:05.672Z,1.47
2023-05-10T09:44:34.403Z,1.30
2023-05-10T09:47:02.661Z,1.40
2023-05-10T09:49:32.501Z,1.33
2023-05-10T09:52:04.780Z,1.33
2023-05-10T09:54:33.493Z,1.03
2023-05-10T09:57:01.879Z,1.37
2023-05-10T09:59:30.537Z,1.40
2023-05-10T10:01:59.474Z,1.67
2023-05-10T10:04:28.305Z,1.47
2023-05-10T10:07:05.138Z,1.20
2023-05-10T10:09:33.798Z,1.23
2023-05-10T10:12:02.027Z,1.57
2023-05-10T10:14:30.433Z,1.93
2023-05-10T10:19:30.033Z,1.30
2023-05-10T10:21:58.553Z,1.47
2023-05-10T10:24:28.144Z,1.47
2023-05-10T10:26:58.861Z,1.03
2023-05-10T10:29:32.532Z,1.17
2023-05-10T10:32:07.763Z,1.90
2023-05-10T10:34:36.467Z,1.60
2023-05-10T10:37:07.560Z,1.50
2023-05-10T10:39:37.761Z,1.50
2023-05-10T10:42:07.596Z,1.73
2023-05-10T10:44:37.509Z,1.47
2023-05-10T10:47:12.201Z,1.60
2023-05-10T10:49:41.100Z,1.50
2023-05-10T10:52:16.376Z,1.70
2023-05-10T10:54:49.704Z,1.80
2023-05-10T10:57:17.886Z,1.60
2023-05-10T10:59:46.382Z,1.50
2023-05-10T11:02:35.001Z,1.70
2023-05-10T11:05:03.351Z,1.50
2023-05-10T11:07:31.531Z,1.70
2023-05-10T11:10:06.803Z,1.60
2023-05-10T11:12:35.987Z,1.40
2023-05-10T11:15:04.191Z,1.37
2023-05-10T11:17:33.696Z,1.60
2023-05-10T11:20:09.255Z,1.60
2023-05-10T11:22:52.246Z,1.90
2023-05-10T11:25:21.766Z,1.80
2023-05-10T11:27:50.656Z,1.80
2023-05-10T11:30:19.325Z,2.07
2023-05-10T11:32:47.871Z,2.50
2023-05-10T11:35:16.324Z,2.27
2023-05-10T11:37:46.151Z,2.20
2023-05-10T11:40:16.086Z,2.60
2023-05-10T11:42:45.762Z,2.50
2023-05-10T11:45:13.912Z,2.10
2023-05-10T11:47:44.176Z,2.57
2023-05-10T11:50:13.555Z,2.07
2023-05-10T11:52:41.709Z,2.00
2023-05-10T11:55:10.092Z,2.00
2023-05-10T11:57:39.383Z,2.73
2023-05-10T12:00:10.037Z,2.60
2023-05-10T12:02:38.288Z,2.50
2023-05-10T12:05:07.126Z,2.60
2023-05-10T12:07:35.936Z,2.60
2023-05-10T12:10:11.270Z,2.60
2023-05-10T12:12:40.094Z,2.60
2023-05-10T12:15:13.014Z,2.40
2023-05-10T12:17:43.421Z,2.87
2023-05-10T12:20:18.753Z,3.27
2023-05-10T12:22:47.841Z,3.10
2023-05-10T12:25:16.034Z,3.40
2023-05-10T12:27:44.209Z,3.00
2023-05-10T12:30:14.817Z,3.43
2023-05-10T12:32:43.605Z,3.33
2023-05-10T12:35:11.863Z,3.57
2023-05-10T12:37:40.805Z,3.60
2023-05-10T12:40:10.168Z,3.33
2023-05-10T12:42:38.416Z,4.00
2023-05-10T12:45:07.010Z,4.07
2023-05-10T12:47:36.874Z,3.70
2023-05-10T12:50:05.492Z,4.63
2023-05-10T12:52:34.120Z,4.20
2023-05-10T12:55:02.410Z,4.70
2023-05-10T12:57:30.634Z,4.53
2023-05-10T12:59:58.851Z,4.57
2023-05-10T13:02:27.077Z,4.03
2023-05-10T13:04:56.832Z,4.60
2023-05-10T13:07:25.045Z,4.83
2023-05-10T13:09:53.236Z,4.17
2023-05-10T13:12:21.383Z,4.70
2023-05-10T13:14:49.567Z,4.57
2023-05-10T13:17:17.827Z,4.47
2023-05-10T13:19:46.151Z,4.30
2023-05-10T13:22:18.726Z,4.43
2023-05-10T13:24:51.696Z,4.07
2023-05-10T13:27:19.889Z,4.23
2023-05-10T13:29:49.200Z,4.20
2023-05-10T13:32:17.485Z,3.73
2023-05-10T13:34:45.687Z,3.97
2023-05-10T13:37:13.896Z,4.07
2023-05-10T13:39:43.430Z,4.53
2023-05-10T13:42:11.795Z,3.40
2023-05-10T13:44:39.943Z,3.33
2023-05-10T13:47:08.210Z,3.60
2023-05-10T13:49:36.360Z,3.00
2023-05-10T13:52:07.714Z,2.77
2023-05-10T13:54:36.607Z,3.50
2023-05-10T13:57:06.423Z,2.70
2023-05-10T13:59:34.806Z,3.27
2023-05-10T14:02:04.032Z,3.10
2023-05-10T14:04:32.568Z,2.83
2023-05-10T14:07:00.751Z,3.30
2023-05-10T14:09:28.909Z,3.50
2023-05-10T14:11:57.086Z,3.10
2023-05-10T14:14:26.873Z,3.10
2023-05-10T14:16:55.069Z,3.43
2023-05-10T14:19:23.223Z,3.30
2023-05-10T14:21:52.908Z,3.47
2023-05-10T14:24:21.101Z,3.20
2023-05-10T14:26:49.271Z,3.50
2023-05-10T14:29:17.418Z,3.70
2023-05-10T14:31:47.025Z,3.40
2023-05-10T14:34:15.246Z,3.57
2023-05-10T14:36:43.420Z,4.00
2023-05-10T14:39:13.691Z,4.03
2023-05-10T14:41:43.941Z,4.17
2023-05-10T14:44:12.212Z,3.80
2023-05-10T14:46:40.471Z,4.23
2023-05-10T14:49:10.141Z,4.60
2023-05-10T14:51:38.680Z,4.27
2023-05-10T14:54:06.881Z,4.17
2023-05-10T14:56:35.052Z,4.73
2023-05-10T14:59:04.858Z,4.90
2023-05-10T15:01:34.020Z,4.40
2023-05-10T15:04:02.803Z,4.77
2023-05-10T15:06:34.782Z,4.40
2023-05-10T15:09:03.703Z,4.20
2023-05-10T15:11:32.046Z,4.73
2023-05-10T15:14:00.223Z,4.43
2023-05-10T15:16:28.387Z,4.37
2023-05-10T15:18:56.606Z,3.27
2023-05-10T15:21:24.854Z,3.07
2023-05-10T15:23:54.372Z,2.40
2023-05-10T15:26:23.063Z,2.23
2023-05-10T15:28:51.312Z,2.43
2023-05-10T15:31:19.506Z,3.30
2023-05-10T15:33:47.711Z,3.60
2023-05-10T15:36:16.225Z,1.50
2023-05-10T15:38:44.405Z,1.27
2023-05-10T15:41:13.941Z,1.40
2023-05-10T15:43:42.586Z,1.20
2023-05-10T15:46:10.819Z,1.03
2023-05-10T15:48:40.147Z,0.90
2023-05-10T15:51:08.379Z,1.13
2023-05-10T15:53:46.583Z,0.90
2023-05-10T15:56:23.125Z,1.23
2023-05-10T15:58:51.381Z,1.20
2023-05-10T16:01:19.599Z,1.10
2023-05-10T16:03:47.754Z,1.00
2023-05-10T16:06:15.917Z,1.10
2023-05-10T16:08:44.075Z,1.10
2023-05-10T16:11:12.358Z,1.40
2023-05-10T16:13:41.873Z,1.40
2023-05-10T16:16:10.263Z,1.30
2023-05-10T16:18:38.596Z,1.30
2023-05-10T16:21:06.845Z,1.40
2023-05-10T16:23:35.020Z,1.50
2023-05-10T16:26:03.267Z,1.60
2023-05-10T16:28:32.268Z,1.20
2023-05-10T16:31:01.840Z,1.30
2023-05-10T16:33:30.005Z,1.00
2023-05-10T16:35:58.181Z,1.30
2023-05-10T16:38:26.745Z,1.33
2023-05-10T16:40:55.364Z,1.10
2023-05-10T16:43:25.374Z,1.20
2023-05-10T16:45:54.381Z,1.20
2023-05-10T16:48:23.930Z,1.30
2023-05-10T16:50:52.093Z,1.40
2023-05-10T16:53:20.279Z,1.20
2023-05-10T16:55:48.438Z,0.90
2023-05-10T16:58:16.605Z,0.93
2023-05-10T17:00:44.780Z,0.70
2023-05-10T17:03:13.020Z,1.10
2023-05-10T17:05:43.169Z,1.00
2023-05-10T17:08:11.591Z,0.90
2023-05-10T17:10:41.425Z,0.80
2023-05-10T17:13:10.601Z,1.07
2023-05-10T17:15:39.123Z,0.70
2023-05-10T17:18:07.995Z,0.70
2023-05-10T17:20:36.250Z,0.90
2023-05-10T17:23:05.791Z,1.10
2023-05-10T17:25:33.964Z,0.90
2023-05-10T17:28:02.130Z,1.20
2023-05-10T17:30:32.513Z,1.07
2023-05-10T17:33:00.846Z,0.90
2023-05-10T17:35:30.557Z,0.93
2023-05-10T17:37:59.036Z,1.10
2023-05-10T17:40:28.614Z,0.90
2023-05-10T17:42:56.814Z,1.07
2023-05-10T17:45:24.964Z,1.00
2023-05-10T17:47:53.205Z,1.07
2023-05-10T17:50:21.475Z,1.20
2023-05-10T17:52:49.669Z,1.00
2023-05-10T17:55:18.133Z,1.10
2023-05-10T17:57:49.890Z,0.90
2023-05-10T18:00:19.468Z,0.90
2023-05-10T18:02:47.654Z,0.80
2023-05-10T18:05:15.959Z,0.80
2023-05-10T18:07:44.288Z,1.00
2023-05-10T18:10:12.765Z,0.90
2023-05-10T18:12:40.924Z,0.93
2023-05-10T18:15:11.012Z,0.80
2023-05-10T18:17:39.210Z,1.00
2023-05-10T18:20:08.193Z,0.80
2023-05-10T18:22:36.367Z,1.13
2023-05-10T18:25:04.512Z,0.83
2023-05-10T18:27:32.787Z,1.10
2023-05-10T18:30:00.929Z,1.20
2023-05-10T18:32:31.306Z,1.10
2023-05-10T18:34:59.482Z,1.03
2023-05-10T18:37:28.785Z,1.30
2023-05-10T18:39:57.627Z,1.10
2023-05-10T18:42:26.554Z,1.00
2023-05-10T18:44:54.786Z,1.20
2023-05-10T18:47:23.056Z,1.40
2023-05-10T18:49:52.632Z,1.20
2023-05-10T18:52:20.807Z,1.20
2023-05-10T18:54:48.977Z,1.60
2023-05-10T18:57:17.148Z,1.40
2023-05-10T18:59:45.347Z,1.40
2023-05-10T19:02:13.835Z,1.20
2023-05-10T19:04:42.183Z,1.67
2023-05-10T19:07:11.885Z,1.90
2023-05-10T19:09:40.120Z,1.63
2023-05-10T19:12:08.799Z,1.50
2023-05-10T19:14:37.092Z,1.53
2023-05-10T19:17:06.465Z,1.63
2023-05-10T19:19:37.092Z,1.80
2023-05-10T19:22:05.626Z,1.87
2023-05-10T19:24:36.809Z,1.90
2023-05-10T19:27:05.266Z,2.20
2023-05-10T19:29:33.427Z,2.00
2023-05-10T19:32:01.834Z,2.00
2023-05-10T19:34:30.060Z,2.00
2023-05-10T19:36:59.002Z,1.90
2023-05-10T19:39:28.316Z,2.00
2023-05-10T19:41:57.894Z,1.90
2023-05-10T19:44:26.118Z,1.97
2023-05-10T19:46:55.038Z,2.20
2023-05-10T19:49:23.336Z,2.10
2023-05-10T19:51:51.582Z,1.70
2023-05-10T19:54:19.773Z,2.30
2023-05-10T19:56:47.929Z,2.00
2023-05-10T19:59:17.460Z,2.20
2023-05-10T20:01:46.107Z,2.33
2023-05-10T20:04:14.389Z,3.80
2023-05-10T20:06:42.585Z,3.60
2023-05-10T20:09:10.814Z,3.70
2023-05-10T20:11:38.974Z,3.67
2023-05-10T20:14:07.189Z,4.80
2023-05-10T20:16:36.760Z,4.97
2023-05-10T20:19:05.105Z,4.30
2023-05-10T20:21:33.855Z,3.97
2023-05-10T20:24:02.022Z,5.57
2023-05-10T20:26:30.217Z,5.47
2023-05-10T20:28:58.353Z,6.63
2023-05-10T20:31:26.593Z,5.87
2023-05-10T20:33:56.182Z,6.33
2023-05-10T20:36:24.436Z,6.83
2023-05-10T20:38:52.592Z,6.80
2023-05-10T20:41:21.001Z,8.03
2023-05-10T20:43:49.163Z,7.63
2023-05-10T20:46:17.391Z,7.90
2023-05-10T20:48:45.584Z,7.27
2023-05-10T20:51:15.119Z,6.63
2023-05-10T20:53:43.367Z,6.83
2023-05-10T20:56:11.574Z,6.20
2023-05-10T20:58:39.734Z,5.07
2023-05-10T21:01:07.967Z,4.93
2023-05-10T21:03:36.203Z,4.80
2023-05-10T21:06:04.360Z,4.53
2023-05-10T21:08:33.919Z,4.30
2023-05-10T21:11:05.610Z,4.23
2023-05-10T21:13:33.979Z,4.43
2023-05-10T21:16:02.211Z,4.83
2023-05-10T21:18:30.476Z,4.83
2023-05-10T21:20:59.855Z,5.10
2023-05-10T21:23:28.055Z,5.60
2023-05-10T21:25:57.591Z,5.80
2023-05-10T21:28:25.798Z,5.07
2023-05-10T21:30:54.036Z,5.60
2023-05-10T21:33:22.294Z,5.97
2023-05-10T21:35:50.585Z,5.70
2023-05-10T21:38:18.797Z,6.20
2023-05-10T21:40:46.980Z,5.87
2023-05-10T21:43:16.480Z,5.70
2023-05-10T21:45:44.682Z,5.47
2023-05-10T21:48:13.160Z,5.20
2023-05-10T21:50:42.354Z,4.63
2023-05-10T21:53:10.592Z,5.67
2023-05-10T21:55:38.802Z,4.63
2023-05-10T21:58:07.017Z,4.67
2023-05-10T22:00:36.593Z,5.10
2023-05-10T22:03:04.835Z,5.07
2023-05-10T22:05:33.128Z,5.30
2023-05-10T22:08:01.294Z,7.37
2023-05-10T22:10:29.496Z,8.13
2023-05-10T22:12:58.147Z,7.40
2023-05-10T22:15:26.329Z,8.43
2023-05-10T22:17:55.985Z,8.30
2023-05-10T22:20:24.375Z,7.97
2023-05-10T22:22:52.578Z,7.73
2023-05-10T22:25:20.893Z,7.50
2023-05-10T22:27:49.035Z,8.40
2023-05-10T22:30:17.856Z,10.23
2023-05-10T22:32:46.408Z,9.53
2023-05-10T22:35:15.953Z,10.30
2023-05-10T22:37:44.120Z,10.17
2023-05-10T22:40:12.885Z,10.53
2023-05-10T22:42:41.052Z,9.70
2023-05-10T22:45:10.051Z,9.93
2023-05-10T22:47:38.283Z,10.47
2023-05-10T22:50:06.980Z,10.07
2023-05-10T22:52:38.745Z,8.33
2023-05-10T22:55:07.831Z,8.70
2023-05-10T22:57:36.133Z,9.47
2023-05-10T23:00:04.958Z,8.83
2023-05-10T23:02:33.225Z,9.13
2023-05-10T23:05:01.546Z,8.40
2023-05-10T23:07:29.799Z,8.47
2023-05-10T23:09:59.318Z,7.30
2023-05-10T23:12:27.521Z,8.30
2023-05-10T23:14:56.468Z,8.33
2023-05-10T23:17:24.663Z,7.23
2023-05-10T23:19:52.830Z,8.23
2023-05-10T23:22:21.035Z,7.53
2023-05-10T23:24:49.211Z,8.17
2023-05-10T23:27:18.736Z,7.67
2023-05-10T23:29:46.989Z,7.63
2023-05-10T23:32:15.216Z,7.67
2023-05-10T23:34:43.477Z,7.63
2023-05-10T23:37:11.631Z,7.73
2023-05-10T23:39:40.001Z,7.67
2023-05-10T23:42:08.142Z,8.03
2023-05-10T23:44:37.651Z,7.80
2023-05-10T23:47:06.010Z,7.10
2023-05-10T23:49:34.173Z,7.97
2023-05-10T23:52:02.312Z,8.30
2023-05-10T23:54:30.501Z,7.83
2023-05-10T23:56:58.649Z,8.50
2023-05-10T23:59:26.825Z,8.30
